Time;durP1;ratioP1;P1;durP2;ratioP2;P2;SDS_P1;SDS_P2;PMS_P1;PMS_P2;Temp;Humidity;BMP_temperature;BMP_pressure;BME280_temperature;BME280_humidity;BME280_pressure;Samples;Min_cycle;Max_cycle;Signal;HPM_P1;HPM_P2
2022/05/04 00:00:49;;;;;;;41.22;24.13;;;10.30;99.90;;;;;;5052511;28;20025;-46
2022/05/04 00:03:15;;;;;;;46.40;25.15;;;10.30;99.90;;;;;;5052451;28;20028;-46
2022/05/04 00:05:41;;;;;;;47.17;26.17;;;10.30;99.90;;;;;;5052137;28;20041;-46
2022/05/04 00:08:08;;;;;;;43.10;26.08;;;10.50;99.90;;;;;;5052418;28;20066;-46
2022/05/04 00:10:34;;;;;;;45.77;26.17;;;10.50;99.90;;;;;;5052333;28;20052;-45
2022/05/04 00:13:01;;;;;;;42.15;25.52;;;10.50;99.90;;;;;;5051901;28;20031;-46
2022/05/04 00:15:27;;;;;;;40.35;25.48;;;10.40;99.90;;;;;;5052150;28;20036;-47
2022/05/04 00:17:53;;;;;;;43.15;23.15;;;10.40;99.90;;;;;;5052226;28;20020;-46
2022/05/04 00:20:19;;;;;;;41.75;23.55;;;10.50;99.90;;;;;;5052030;28;20037;-45
2022/05/04 00:22:45;;;;;;;44.97;25.52;;;10.50;99.90;;;;;;5049362;28;20013;-46
2022/05/04 00:25:11;;;;;;;48.58;27.10;;;10.60;99.90;;;;;;5051976;28;20031;-46
2022/05/04 00:27:38;;;;;;;47.03;26.90;;;10.50;99.90;;;;;;5051535;28;20029;-46
2022/05/04 00:30:05;;;;;;;47.83;27.70;;;10.60;99.90;;;;;;5051938;28;20065;-45
2022/05/04 00:32:31;;;;;;;48.10;27.67;;;10.80;99.90;;;;;;5050407;28;20038;-46
2022/05/04 00:34:57;;;;;;;47.20;27.48;;;10.70;99.90;;;;;;5051574;28;20399;-47
2022/05/04 00:37:23;;;;;;;48.63;26.47;;;10.60;99.90;;;;;;5051573;28;20013;-46
2022/05/04 00:39:49;;;;;;;38.33;22.10;;;10.80;99.90;;;;;;5052991;28;20083;-45
2022/05/04 00:42:18;;;;;;;40.47;24.63;;;10.80;99.90;;;;;;5051228;28;20045;-44
2022/05/04 00:44:47;;;;;;;29.92;18.92;;;10.70;99.90;;;;;;5051753;28;20086;-45
2022/05/04 00:47:13;;;;;;;27.23;18.42;;;10.60;99.90;;;;;;5051486;28;20117;-45
2022/05/04 00:49:41;;;;;;;28.55;18.52;;;10.70;99.90;;;;;;5050632;28;20040;-44
2022/05/04 00:52:07;;;;;;;;;;;10.80;99.90;;;;;;5051875;28;20074;-45
2022/05/04 00:54:34;;;;;;;32.03;20.10;;;10.70;99.90;;;;;;5053586;28;19908;-45
2022/05/04 00:57:01;;;;;;;33.47;20.33;;;10.70;99.90;;;;;;5051121;28;20031;-47
2022/05/04 00:59:29;;;;;;;32.13;19.20;;;10.60;99.90;;;;;;5051397;28;20032;-46
2022/05/04 01:01:56;;;;;;;30.63;19.33;;;10.70;99.90;;;;;;5051639;28;20025;-45
2022/05/04 01:04:22;;;;;;;29.30;19.93;;;10.80;99.90;;;;;;5050888;28;20063;-45
2022/05/04 01:06:48;;;;;;;34.63;23.45;;;10.70;99.90;;;;;;5051422;28;20033;-45
2022/05/04 01:09:14;;;;;;;41.75;24.65;;;10.70;99.90;;;;;;5050924;28;20072;-47
2022/05/04 01:11:40;;;;;;;51.22;28.80;;;10.70;99.90;;;;;;5051029;28;20480;-44
2022/05/04 01:14:08;;;;;;;46.93;28.17;;;10.80;99.90;;;;;;5050987;28;21637;-44
2022/05/04 01:16:36;;;;;;;42.03;23.52;;;10.70;99.90;;;;;;5048947;28;20534;-44
2022/05/04 01:19:02;;;;;;;38.78;22.45;;;10.80;99.90;;;;;;5050894;28;20389;-43
2022/05/04 01:21:28;;;;;;;38.50;22.35;;;10.80;99.90;;;;;;5051011;28;20044;-45
2022/05/04 01:23:54;;;;;;;41.03;22.38;;;10.80;99.90;;;;;;5050680;28;20021;-45
2022/05/04 01:26:20;;;;;;;43.75;24.73;;;10.70;99.90;;;;;;5050746;28;20441;-45
2022/05/04 01:28:46;;;;;;;38.10;23.90;;;10.70;99.90;;;;;;5051102;28;20047;-46
2022/05/04 01:31:13;;;;;;;41.95;24.58;;;10.70;99.90;;;;;;5048121;28;20035;-47
2022/05/04 01:33:39;;;;;;;40.28;24.73;;;10.80;99.90;;;;;;5050651;28;20021;-45
2022/05/04 01:36:06;;;;;;;45.92;24.13;;;10.80;99.90;;;;;;5050989;28;20059;-45
2022/05/04 01:38:32;;;;;;;41.78;23.70;;;10.80;99.90;;;;;;5047747;28;20071;-44
2022/05/04 01:40:58;;;;;;;38.45;23.35;;;11.00;99.90;;;;;;5050630;28;20375;-46
2022/05/04 01:43:24;;;;;;;41.78;23.63;;;10.90;99.90;;;;;;5050863;28;20025;-46
2022/05/04 01:45:50;;;;;;;39.35;23.83;;;10.90;99.90;;;;;;5050542;28;20764;-44
2022/05/04 01:48:15;;;;;;;44.10;24.90;;;11.00;99.90;;;;;;5050507;28;20662;-45
2022/05/04 01:50:42;;;;;;;37.90;23.45;;;11.00;99.90;;;;;;5050479;28;20427;-52
2022/05/04 01:53:08;;;;;;;38.92;24.92;;;11.00;99.90;;;;;;5048726;28;20044;-45
2022/05/04 01:55:35;;;;;;;43.28;24.60;;;11.00;99.90;;;;;;5052631;28;20021;-45
2022/05/04 01:58:01;;;;;;;42.58;24.58;;;11.00;99.90;;;;;;5048996;28;20032;-45
2022/05/04 02:00:28;;;;;;;39.08;23.55;;;10.80;99.90;;;;;;5050381;28;20506;-45
2022/05/04 02:02:54;;;;;;;39.85;23.58;;;10.90;99.90;;;;;;5050319;28;20040;-45
2022/05/04 02:05:21;;;;;;;39.28;22.80;;;10.90;99.90;;;;;;5050205;28;20029;-44
2022/05/04 02:07:47;;;;;;;41.30;24.73;;;10.90;99.90;;;;;;5048648;28;20053;-44
2022/05/04 02:10:15;;;;;;;38.03;24.17;;;10.90;99.90;;;;;;5044942;28;20126;-46
2022/05/04 02:12:42;;;;;;;39.20;23.98;;;10.80;99.90;;;;;;5051336;28;20025;-45
2022/05/04 02:15:10;;;;;;;38.85;23.25;;;10.80;99.90;;;;;;5032747;28;20025;-45
2022/05/04 02:17:37;;;;;;;42.75;22.38;;;10.90;99.90;;;;;;5050474;28;20334;-45
2022/05/04 02:20:04;;;;;;;37.65;22.35;;;10.90;99.90;;;;;;5050221;28;20028;-44
2022/05/04 02:22:30;;;;;;;36.15;22.83;;;11.00;99.90;;;;;;5050293;28;20042;-45
2022/05/04 02:24:57;;;;;;;40.03;23.95;;;11.00;99.90;;;;;;5050328;28;20473;-45
2022/05/04 02:27:23;;;;;;;36.10;23.17;;;10.90;99.90;;;;;;5050346;28;20033;-45
2022/05/04 02:29:49;;;;;;;37.00;22.88;;;10.90;99.90;;;;;;5050070;28;20384;-44
2022/05/04 02:32:15;;;;;;;38.67;22.17;;;10.90;99.90;;;;;;5050108;28;20059;-44
2022/05/04 02:40:11;;;;;;;31.23;19.13;;;10.90;99.90;;;;;;5047812;28;20166;-46
2022/05/04 02:42:37;;;;;;;32.23;19.17;;;11.00;99.90;;;;;;5049895;28;20055;-46
2022/05/04 02:45:05;;;;;;;35.15;20.42;;;11.10;99.90;;;;;;5049790;28;20596;-47
2022/05/04 02:47:30;;;;;;;34.25;20.55;;;11.20;99.90;;;;;;5049728;28;20025;-44
2022/05/04 02:49:56;;;;;;;31.85;20.05;;;11.20;99.90;;;;;;5049761;28;20079;-46
2022/05/04 02:52:22;;;;;;;33.00;20.92;;;11.20;99.90;;;;;;5048402;28;20021;-46
2022/05/04 02:54:48;;;;;;;31.63;20.23;;;11.30;99.90;;;;;;5047401;28;20025;-46
2022/05/04 02:57:14;;;;;;;33.45;20.80;;;11.20;99.90;;;;;;5049620;28;20442;-46
2022/05/04 02:59:39;;;;;;;34.05;21.40;;;11.10;99.90;;;;;;5049647;28;20083;-46
2022/05/04 03:04:49;;;;;;;36.65;21.75;;;10.90;99.90;;;;;;5048401;28;20121;-45
2022/05/04 03:07:15;;;;;;;37.13;21.95;;;10.80;99.90;;;;;;5049739;28;20495;-44
2022/05/04 03:09:41;;;;;;;36.08;22.13;;;10.80;99.90;;;;;;5049080;28;20056;-45
2022/05/04 03:12:07;;;;;;;38.67;22.58;;;10.90;99.90;;;;;;5049554;28;20021;-44
2022/05/04 03:14:33;;;;;;;33.53;23.02;;;11.00;99.90;;;;;;5049522;28;20108;-45
2022/05/04 03:16:58;;;;;;;31.58;22.15;;;11.00;99.90;;;;;;5049411;28;20128;-48
2022/05/04 03:19:25;;;;;;;38.22;22.42;;;11.00;99.90;;;;;;5049369;28;20495;-46
2022/05/04 03:21:51;;;;;;;34.53;21.40;;;11.10;99.90;;;;;;5049409;28;20025;-47
2022/05/04 03:24:18;;;;;;;36.10;22.03;;;11.20;99.90;;;;;;5049367;28;20017;-45
2022/05/04 03:26:43;;;;;;;35.63;20.95;;;11.10;99.90;;;;;;5050835;28;20147;-45
2022/05/04 03:29:09;;;;;;;40.42;23.05;;;11.10;99.90;;;;;;5054158;28;20527;-45
2022/05/04 03:31:36;;;;;;;33.00;21.38;;;11.00;99.90;;;;;;5055952;28;20373;-46
2022/05/04 03:34:02;;;;;;;35.40;21.08;;;11.00;99.90;;;;;;5055767;28;20044;-45
2022/05/04 03:36:28;;;;;;;34.25;21.15;;;11.00;99.90;;;;;;5055812;28;20503;-45
2022/05/04 03:38:54;;;;;;;35.55;20.38;;;11.10;99.90;;;;;;5055704;28;20081;-46
2022/05/04 03:41:20;;;;;;;35.47;19.52;;;11.10;99.90;;;;;;5055954;28;20099;-47
2022/05/04 03:43:47;;;;;;;35.55;20.50;;;11.10;99.90;;;;;;5056122;28;20132;-45
2022/05/04 03:46:13;;;;;;;34.75;20.27;;;11.10;99.90;;;;;;5055895;28;20091;-45
2022/05/04 03:48:39;;;;;;;37.80;20.98;;;11.20;99.90;;;;;;5055744;28;20029;-46
2022/05/04 03:51:05;;;;;;;36.25;19.23;;;11.10;99.90;;;;;;5055699;28;20039;-45
2022/05/04 03:53:30;;;;;;;33.33;19.30;;;11.30;99.90;;;;;;5055660;28;20036;-45
2022/05/04 03:55:56;;;;;;;32.78;19.15;;;11.20;99.90;;;;;;5055683;28;20028;-44
2022/05/04 03:58:22;;;;;;;28.27;17.73;;;11.20;99.90;;;;;;5055857;28;20025;-45
2022/05/04 04:00:48;;;;;;;34.90;18.13;;;11.20;99.90;;;;;;5056206;28;20135;-46
2022/05/04 04:03:14;;;;;;;31.95;17.73;;;11.30;99.90;;;;;;5055614;28;20469;-45
2022/05/04 04:05:39;;;;;;;30.63;18.08;;;11.30;99.90;;;;;;5057993;28;20033;-46
2022/05/04 04:08:05;;;;;;;33.20;17.85;;;11.30;99.90;;;;;;5054409;28;20021;-45
2022/05/04 04:10:31;;;;;;;32.72;18.10;;;11.30;99.90;;;;;;5055258;28;20055;-45
2022/05/04 04:12:56;;;;;;;27.25;16.35;;;11.30;99.90;;;;;;5054236;28;20043;-47
2022/05/04 04:15:22;;;;;;;29.60;18.35;;;11.40;99.90;;;;;;5054529;28;20511;-46
2022/05/04 04:17:48;;;;;;;29.63;17.00;;;11.50;99.90;;;;;;5055691;28;20746;-45
2022/05/04 04:22:58;;;;;;;31.67;17.30;;;11.50;99.90;;;;;;5053181;28;20039;-46
2022/05/04 04:25:24;;;;;;;28.48;16.42;;;11.50;99.90;;;;;;5055354;28;20479;-47
2022/05/04 04:27:49;;;;;;;30.25;17.08;;;11.60;99.90;;;;;;5054094;28;20039;-45
2022/05/04 04:30:15;;;;;;;29.23;17.83;;;11.80;99.90;;;;;;5044774;28;20499;-46
2022/05/04 04:32:41;;;;;;;31.80;18.30;;;11.80;99.90;;;;;;5055675;28;20078;-46
2022/05/04 04:35:07;;;;;;;27.42;16.63;;;11.90;99.90;;;;;;5055695;28;20025;-45
2022/05/04 04:37:33;;;;;;;32.63;18.00;;;11.80;99.90;;;;;;5053883;28;20501;-47
2022/05/04 04:39:59;;;;;;;26.67;18.50;;;11.90;99.90;;;;;;5051088;28;20354;-45
2022/05/04 04:42:24;;;;;;;29.85;17.95;;;11.90;99.90;;;;;;5052130;28;20064;-46
2022/05/04 04:44:50;;;;;;;32.70;18.85;;;11.90;99.90;;;;;;5052262;28;20037;-45
2022/05/04 04:47:15;;;;;;;28.13;17.17;;;11.90;99.90;;;;;;5049494;28;20504;-45
2022/05/04 04:49:41;;;;;;;33.53;17.80;;;12.10;99.90;;;;;;5052040;28;20025;-44
2022/05/04 04:52:07;;;;;;;29.60;19.70;;;12.00;99.90;;;;;;5051980;28;20075;-45
2022/05/04 04:54:33;;;;;;;31.85;18.30;;;11.90;99.90;;;;;;5051645;28;20369;-45
2022/05/04 04:56:58;;;;;;;28.67;19.50;;;12.00;99.90;;;;;;5051747;28;20057;-46
2022/05/04 04:59:24;;;;;;;36.58;18.65;;;12.00;99.90;;;;;;5050600;28;20024;-47
2022/05/04 05:01:50;;;;;;;33.25;20.13;;;12.10;99.90;;;;;;5051945;28;20028;-45
2022/05/04 05:04:16;;;;;;;31.25;21.13;;;12.10;99.90;;;;;;5054200;28;20159;-45
2022/05/04 05:06:42;;;;;;;33.57;22.97;;;12.10;99.90;;;;;;5052122;28;20545;-46
2022/05/04 05:09:08;;;;;;;40.85;22.38;;;12.20;99.90;;;;;;5051804;28;20536;-46
2022/05/04 05:11:34;;;;;;;35.47;22.95;;;12.10;99.90;;;;;;5051506;28;20116;-49
2022/05/04 05:16:44;;;;;;;37.05;24.13;;;12.20;99.90;;;;;;5050362;28;20032;-45
2022/05/04 05:19:09;;;;;;;35.33;23.58;;;12.30;99.90;;;;;;5051492;28;20029;-46
2022/05/04 05:21:35;;;;;;;36.45;22.52;;;12.30;99.90;;;;;;5051504;28;20025;-45
2022/05/04 05:24:01;;;;;;;34.38;22.55;;;12.40;99.90;;;;;;5051542;28;20021;-45
2022/05/04 05:26:26;;;;;;;36.70;22.00;;;12.30;99.90;;;;;;5051265;28;20541;-45
2022/05/04 05:28:52;;;;;;;34.17;24.48;;;12.40;99.90;;;;;;5050980;28;20475;-46
2022/05/04 05:31:18;;;;;;;37.67;26.48;;;12.40;99.90;;;;;;5051346;28;20103;-47
2022/05/04 05:33:46;;;;;;;40.95;28.38;;;12.50;99.90;;;;;;5051102;28;20131;-45
2022/05/04 05:36:11;;;;;;;;;;;12.60;99.90;;;;;;5051550;28;20025;-44
2022/05/04 05:38:37;;;;;;;48.85;31.90;;;12.70;99.90;;;;;;5051322;28;19911;-45
2022/05/04 05:41:03;;;;;;;49.03;31.73;;;12.80;99.90;;;;;;5050924;28;20480;-47
2022/05/04 05:43:28;;;;;;;50.25;33.45;;;12.90;99.90;;;;;;5051034;28;20060;-46
2022/05/04 05:45:54;;;;;;;49.88;34.00;;;13.00;99.90;;;;;;5051352;28;20682;-46
2022/05/04 05:48:20;;;;;;;49.72;33.53;;;13.10;99.90;;;;;;5051053;28;20048;-47
2022/05/04 05:50:47;;;;;;;49.15;35.25;;;13.20;99.90;;;;;;5049648;28;20078;-45
2022/05/04 05:53:17;;;;;;;51.20;32.92;;;13.20;99.90;;;;;;5050857;28;20381;-46
2022/05/04 05:55:42;;;;;;;46.47;31.60;;;13.30;99.90;;;;;;5051121;28;20100;-45
2022/05/04 05:58:09;;;;;;;43.95;29.08;;;13.40;99.90;;;;;;5050681;28;20100;-46
2022/05/04 06:00:36;;;;;;;41.47;28.23;;;13.50;99.90;;;;;;5050824;28;20021;-45
2022/05/04 06:03:02;;;;;;;40.72;25.80;;;13.60;99.90;;;;;;5050462;28;20086;-45
2022/05/04 06:05:27;;;;;;;36.08;23.23;;;13.70;99.90;;;;;;5053252;28;20033;-46
2022/05/04 06:07:53;;;;;;;32.55;22.08;;;13.80;99.90;;;;;;5050423;28;20075;-45
2022/05/04 06:10:19;;;;;;;28.60;21.65;;;13.90;99.90;;;;;;5050482;28;20045;-45
2022/05/04 06:12:45;;;;;;;29.88;21.70;;;13.90;99.90;;;;;;5050415;28;20123;-46
2022/05/04 06:15:11;;;;;;;33.08;23.05;;;14.00;99.90;;;;;;5050261;28;20021;-45
2022/05/04 06:17:38;;;;;;;36.85;24.88;;;14.10;99.90;;;;;;5047612;28;20029;-47
2022/05/04 06:20:05;;;;;;;33.00;23.55;;;14.20;99.90;;;;;;5050370;28;20508;-46
2022/05/04 06:22:31;;;;;;;33.50;24.27;;;14.30;99.90;;;;;;5049811;28;20033;-44
2022/05/04 06:24:57;;;;;;;36.47;26.23;;;14.30;99.90;;;;;;5050517;28;20048;-46
2022/05/04 06:27:22;;;;;;;33.25;22.65;;;14.40;99.90;;;;;;5050547;28;20452;-46
2022/05/04 06:35:17;;;;;;;28.60;20.60;;;14.80;99.90;;;;;;5050402;28;20040;-45
2022/05/04 06:37:43;;;;;;;27.52;19.17;;;14.80;99.90;;;;;;5050496;28;20021;-46
2022/05/04 06:40:09;;;;;;;26.13;17.58;;;14.90;99.90;;;;;;5050337;28;20452;-44
2022/05/04 06:42:35;;;;;;;25.20;16.98;;;14.90;99.90;;;;;;5050423;28;20029;-46
2022/05/04 06:45:02;;;;;;;29.02;17.80;;;15.00;99.90;;;;;;5050402;28;20021;-45
2022/05/04 06:47:28;;;;;;;24.45;14.93;;;15.10;99.90;;;;;;5050163;28;20028;-46
2022/05/04 06:49:54;;;;;;;23.00;14.07;;;15.20;99.90;;;;;;5050448;28;20021;-45
2022/05/04 06:52:20;;;;;;;19.85;13.05;;;15.30;99.90;;;;;;5050211;28;20527;-45
2022/05/04 06:54:46;;;;;;;21.70;12.98;;;15.50;99.90;;;;;;5050301;28;20029;-45
2022/05/04 06:57:11;;;;;;;23.38;13.40;;;15.50;99.90;;;;;;5049902;28;20384;-45
2022/05/04 06:59:37;;;;;;;22.63;14.43;;;15.60;99.90;;;;;;5050160;28;20021;-46
2022/05/04 07:02:03;;;;;;;22.13;13.43;;;15.60;99.90;;;;;;5050094;28;20432;-45
2022/05/04 07:04:29;;;;;;;24.88;12.90;;;15.60;99.90;;;;;;5057643;28;20020;-46
2022/05/04 07:06:55;;;;;;;27.92;13.32;;;15.60;99.90;;;;;;5070187;28;20037;-46
2022/05/04 07:09:20;;;;;;;26.08;12.98;;;15.80;99.90;;;;;;5069758;28;20039;-46
2022/05/04 07:11:46;;;;;;;19.65;13.45;;;15.90;99.90;;;;;;5069817;28;20063;-45
2022/05/04 07:14:13;;;;;;;21.38;14.55;;;15.90;99.90;;;;;;5069982;28;20028;-47
2022/05/04 07:16:40;;;;;;;24.30;15.35;;;16.10;99.90;;;;;;5070200;28;20024;-48
2022/05/04 07:19:05;;;;;;;20.45;14.82;;;16.00;99.90;;;;;;5065564;28;20032;-45
2022/05/04 07:21:31;;;;;;;21.35;12.77;;;16.00;99.90;;;;;;5049776;28;20481;-45
2022/05/04 07:23:57;;;;;;;20.05;12.43;;;15.90;99.90;;;;;;5049782;28;20035;-44
2022/05/04 07:26:23;;;;;;;21.67;11.32;;;16.00;99.90;;;;;;5049534;28;20039;-45
2022/05/04 07:28:48;;;;;;;22.08;11.45;;;16.20;99.90;;;;;;5049655;28;20087;-43
2022/05/04 07:31:14;;;;;;;17.83;11.60;;;16.30;99.90;;;;;;5049844;28;20029;-45
2022/05/04 07:33:40;;;;;;;18.38;10.75;;;16.40;99.90;;;;;;5049650;28;20435;-46
2022/05/04 07:36:05;;;;;;;20.33;11.77;;;16.60;99.90;;;;;;5049608;28;20052;-45
2022/05/04 07:38:31;;;;;;;14.90;9.85;;;16.60;99.90;;;;;;5049551;28;20033;-46
2022/05/04 07:43:41;;;;;;;21.85;11.55;;;16.80;99.90;;;;;;5049797;28;20027;-46
2022/05/04 07:46:06;;;;;;;17.52;10.07;;;17.00;99.90;;;;;;5049436;28;20041;-47
2022/05/04 07:48:32;;;;;;;19.33;9.35;;;17.10;99.90;;;;;;5049513;28;20029;-45
2022/05/04 07:50:58;;;;;;;15.25;9.45;;;17.30;99.90;;;;;;5049479;28;20121;-45
2022/05/04 07:53:23;;;;;;;18.23;9.85;;;17.50;99.90;;;;;;5049456;28;20042;-45
2022/05/04 07:55:49;;;;;;;16.48;9.30;;;17.50;99.90;;;;;;5049532;28;20025;-47
2022/05/04 07:58:15;;;;;;;14.25;9.32;;;17.40;97.70;;;;;;5049567;28;20079;-46
2022/05/04 08:06:11;;;;;;;17.05;9.20;;;17.60;96.50;;;;;;5029455;28;20576;-46
2022/05/04 08:08:37;;;;;;;15.20;7.88;;;17.60;94.70;;;;;;5029136;28;20081;-45
2022/05/04 08:11:03;;;;;;;13.88;8.10;;;17.70;95.30;;;;;;5029402;28;20029;-45
2022/05/04 08:13:29;;;;;;;13.60;8.20;;;17.70;93.20;;;;;;5030274;28;20152;-47
2022/05/04 08:15:55;;;;;;;16.98;9.70;;;17.70;93.30;;;;;;5033216;28;20504;-46
2022/05/04 08:18:20;;;;;;;13.20;8.80;;;17.80;93.50;;;;;;5033212;28;20022;-46
2022/05/04 08:20:47;;;;;;;13.32;8.60;;;17.90;94.80;;;;;;5051016;28;20111;-47
2022/05/04 08:23:13;;;;;;;16.95;8.63;;;18.00;93.90;;;;;;5053040;28;20434;-46
2022/05/04 08:25:39;;;;;;;21.45;9.10;;;18.20;96.10;;;;;;5053175;28;20029;-46
2022/05/04 08:28:05;;;;;;;15.32;8.43;;;18.50;96.70;;;;;;5051220;28;20504;-44
2022/05/04 08:30:30;;;;;;;14.93;8.45;;;18.30;91.70;;;;;;5052761;28;20542;-46
2022/05/04 08:32:56;;;;;;;13.25;9.00;;;18.10;91.30;;;;;;5052670;28;20037;-45
2022/05/04 08:35:22;;;;;;;12.52;7.97;;;18.00;90.80;;;;;;5052742;28;20500;-46
2022/05/04 08:37:48;;;;;;;11.65;7.82;;;18.10;90.60;;;;;;5052479;28;20100;-46
2022/05/04 08:40:14;;;;;;;17.08;8.38;;;18.10;90.80;;;;;;5052559;28;20025;-45
2022/05/04 08:42:42;;;;;;;13.50;8.45;;;18.20;92.00;;;;;;5052568;28;20025;-47
2022/05/04 08:45:11;;;;;;;13.38;8.00;;;18.30;91.10;;;;;;5052280;28;20031;-46
2022/05/04 08:47:40;;;;;;;13.13;7.30;;;18.30;90.80;;;;;;5052667;28;20033;-45
2022/05/04 08:50:13;;;;;;;11.68;8.00;;;18.60;90.60;;;;;;5052404;28;20021;-46
2022/05/04 08:52:42;;;;;;;15.52;8.05;;;18.70;87.40;;;;;;5051102;28;20709;-45
2022/05/04 08:55:10;;;;;;;11.88;9.05;;;18.60;89.00;;;;;;5052474;28;20048;-48
2022/05/04 08:57:37;;;;;;;17.40;8.65;;;18.90;87.40;;;;;;5050812;28;20655;-45
2022/05/04 09:00:03;;;;;;;11.87;8.20;;;19.00;89.80;;;;;;5052033;28;20021;-45
2022/05/04 09:02:29;;;;;;;14.90;8.20;;;19.20;85.90;;;;;;5052290;28;20491;-46
2022/05/04 09:04:55;;;;;;;14.93;8.13;;;19.40;84.50;;;;;;5063085;28;20041;-47
2022/05/04 09:07:25;;;;;;;17.48;9.18;;;19.40;80.20;;;;;;5072094;28;20059;-47
2022/05/04 09:09:52;;;;;;;13.75;8.27;;;19.40;80.00;;;;;;5071860;28;20032;-45
2022/05/04 09:12:18;;;;;;;11.63;7.88;;;19.40;81.20;;;;;;5071933;28;20056;-46
2022/05/04 09:14:44;;;;;;;12.25;7.80;;;19.50;82.70;;;;;;5071866;28;20064;-46
2022/05/04 09:17:11;;;;;;;15.43;7.65;;;19.70;82.70;;;;;;5071902;28;20044;-46
2022/05/04 09:20:44;;;;;;;12.00;7.40;;;20.00;78.30;;;;;;5063262;28;20112;-46
2022/05/04 09:22:27;;;;;;;11.02;6.88;;;19.80;78.60;;;;;;5051823;28;20044;-47
2022/05/04 09:24:56;;;;;;;10.43;6.38;;;19.90;78.30;;;;;;5051342;28;20500;-47
2022/05/04 09:27:29;;;;;;;15.55;7.55;;;20.10;82.10;;;;;;5051527;28;20032;-46
2022/05/04 09:29:59;;;;;;;14.02;7.53;;;20.20;76.10;;;;;;5051760;28;20047;-46
2022/05/04 09:32:30;;;;;;;9.20;6.75;;;20.40;80.20;;;;;;5051931;28;20422;-46
2022/05/04 09:34:56;;;;;;;11.85;7.28;;;20.50;80.00;;;;;;5051591;28;20017;-46
2022/05/04 09:45:39;;;;;;;8.32;6.00;;;21.30;73.90;;;;;;5051515;28;20103;-45
2022/05/04 09:48:05;;;;;;;14.80;6.10;;;21.70;74.50;;;;;;5051340;28;20021;-46
2022/05/04 09:50:39;;;;;;;12.57;6.15;;;21.90;72.40;;;;;;5051140;28;20039;-46
2022/05/04 09:53:05;;;;;;;10.35;5.95;;;22.00;67.90;;;;;;5051468;28;20112;-46
2022/05/04 09:55:31;;;;;;;10.90;6.10;;;21.90;65.90;;;;;;5050091;28;20021;-46
2022/05/04 09:57:57;;;;;;;10.07;7.07;;;21.50;67.20;;;;;;5051368;28;20033;-47
2022/05/04 10:00:24;;;;;;;10.05;6.03;;;21.40;67.50;;;;;;5050852;28;20028;-46
2022/05/04 10:02:55;;;;;;;9.77;5.57;;;21.10;67.10;;;;;;5050974;28;20029;-46
2022/05/04 10:05:22;;;;;;;8.43;5.45;;;20.80;67.30;;;;;;5065657;28;20468;-46
2022/05/04 10:07:49;;;;;;;9.75;5.57;;;20.70;67.50;;;;;;5070978;28;20024;-46
2022/05/04 10:10:18;;;;;;;13.55;5.88;;;20.70;71.50;;;;;;5070791;28;20061;-45
2022/05/04 10:12:45;;;;;;;13.20;5.95;;;20.50;68.90;;;;;;5069586;28;20115;-46
2022/05/04 10:15:13;;;;;;;12.18;5.80;;;20.30;67.70;;;;;;5070162;28;20040;-45
2022/05/04 10:17:45;;;;;;;8.55;5.57;;;20.30;70.50;;;;;;5070820;28;20111;-46
2022/05/04 10:20:20;;;;;;;10.32;5.82;;;20.10;69.30;;;;;;5057364;28;20361;-47
2022/05/04 10:23:01;;;;;;;11.32;6.05;;;20.10;71.30;;;;;;5050594;28;20037;-46
2022/05/04 10:25:33;;;;;;;9.02;6.05;;;20.00;71.10;;;;;;5050424;28;20037;-46
2022/05/04 10:28:06;;;;;;;12.00;5.97;;;20.00;72.40;;;;;;5050748;28;20032;-46
2022/05/04 10:30:34;;;;;;;10.93;6.22;;;20.00;72.90;;;;;;5050628;28;20025;-46
2022/05/04 10:33:05;;;;;;;10.80;6.20;;;20.10;70.20;;;;;;5050378;28;20086;-46
2022/05/04 10:35:34;;;;;;;12.60;6.57;;;20.00;67.40;;;;;;5050560;28;20036;-46
2022/05/04 10:37:59;;;;;;;14.38;5.75;;;20.00;69.60;;;;;;5049755;28;20037;-47
2022/05/04 10:40:50;;;;;;;10.73;6.32;;;19.80;70.10;;;;;;5050534;28;20614;-46
2022/05/04 10:43:33;;;;;;;9.35;6.15;;;19.80;70.40;;;;;;5050618;28;20312;-46
2022/05/04 10:46:10;;;;;;;13.13;6.30;;;19.90;67.60;;;;;;5048853;28;20036;-46
2022/05/04 10:48:41;;;;;;;12.50;6.20;;;19.80;66.70;;;;;;5050240;28;20036;-45
2022/05/04 10:51:26;;;;;;;10.30;6.60;;;19.60;65.80;;;;;;5050430;28;20268;-46
2022/05/04 10:54:13;;;;;;;8.60;6.05;;;19.60;67.30;;;;;;5049941;28;20025;-45
2022/05/04 10:56:44;;;;;;;10.68;6.30;;;19.60;66.90;;;;;;5048201;28;20066;-45
2022/05/04 10:59:11;;;;;;;11.80;6.07;;;19.50;66.90;;;;;;5050176;28;20425;-46
2022/05/04 11:01:39;;;;;;;10.18;7.05;;;19.50;67.90;;;;;;5050029;28;20491;-46
2022/05/04 11:04:20;;;;;;;10.93;6.35;;;19.50;65.90;;;;;;5053912;28;20457;-46
2022/05/04 11:07:04;;;;;;;12.68;7.00;;;19.40;66.50;;;;;;5069512;28;20042;-45
2022/05/04 11:09:38;;;;;;;8.77;5.72;;;19.40;67.80;;;;;;5069597;28;20048;-46
2022/05/04 11:12:06;;;;;;;7.80;6.15;;;19.40;64.30;;;;;;5069930;28;20025;-46
2022/05/04 11:14:34;;;;;;;7.50;5.60;;;19.30;66.20;;;;;;5070009;28;20100;-46
2022/05/04 11:17:01;;;;;;;8.68;6.25;;;19.40;67.00;;;;;;5050944;28;20117;-45
2022/05/04 11:19:32;;;;;;;10.85;5.90;;;19.40;67.50;;;;;;5049255;28;20029;-45
2022/05/04 11:21:58;;;;;;;11.15;6.47;;;19.30;69.50;;;;;;5047933;28;20437;-45
2022/05/04 11:24:28;;;;;;;10.95;6.82;;;19.20;67.30;;;;;;5049741;28;20027;-45
2022/05/04 11:26:55;;;;;;;9.18;6.35;;;19.20;67.30;;;;;;5049716;28;20542;-46
2022/05/04 11:29:24;;;;;;;8.35;5.88;;;19.30;71.10;;;;;;5048978;28;20373;-46
2022/05/04 11:31:58;;;;;;;10.65;6.82;;;19.60;72.90;;;;;;5048346;28;20035;-45
2022/05/04 11:34:26;;;;;;;13.30;7.40;;;19.90;67.40;;;;;;5048571;28;20021;-47
2022/05/04 11:36:54;;;;;;;13.77;8.85;;;19.90;70.40;;;;;;5048445;28;20048;-47
2022/05/04 11:39:22;;;;;;;17.23;8.30;;;19.60;72.30;;;;;;5047980;28;20083;-46
2022/05/04 11:41:50;;;;;;;12.50;7.78;;;19.40;70.20;;;;;;5049392;28;20468;-47
2022/05/04 11:44:18;;;;;;;13.52;9.15;;;19.40;72.20;;;;;;5049272;28;20025;-45
2022/05/04 11:46:47;;;;;;;19.80;8.30;;;19.40;75.90;;;;;;5049145;28;20547;-48
2022/05/04 11:49:14;;;;;;;11.35;7.15;;;19.30;72.90;;;;;;5053001;28;20029;-45
2022/05/04 11:51:42;;;;;;;14.25;7.93;;;19.20;72.10;;;;;;5053687;28;20063;-45
2022/05/04 11:54:08;;;;;;;11.27;7.53;;;19.10;73.60;;;;;;5053245;28;20123;-45
2022/05/04 11:56:34;;;;;;;10.73;7.75;;;19.20;73.60;;;;;;5053619;28;20103;-46
2022/05/04 11:59:00;;;;;;;9.25;7.38;;;19.20;73.00;;;;;;5053192;28;20040;-47
2022/05/04 12:01:26;;;;;;;19.98;8.10;;;19.20;76.50;;;;;;5053044;28;20025;-46
2022/05/04 12:03:53;;;;;;;13.50;7.38;;;19.30;76.90;;;;;;5055402;28;20033;-47
2022/05/04 12:06:19;;;;;;;11.30;7.87;;;19.40;76.30;;;;;;5072287;28;20036;-46
2022/05/04 12:08:46;;;;;;;11.82;7.40;;;19.50;76.00;;;;;;5073088;28;20040;-46
2022/05/04 12:11:12;;;;;;;14.90;7.35;;;19.70;71.60;;;;;;5073099;28;20152;-47
2022/05/04 12:13:39;;;;;;;11.98;7.30;;;19.70;71.80;;;;;;5073104;28;20506;-46
2022/05/04 12:16:07;;;;;;;15.02;6.88;;;19.80;71.80;;;;;;5072870;28;20037;-47
2022/05/04 12:18:35;;;;;;;13.75;6.95;;;20.10;71.60;;;;;;5073061;28;20021;-45
2022/05/04 12:21:12;;;;;;;9.63;6.55;;;20.30;69.70;;;;;;5056758;28;20029;-47
2022/05/04 12:23:50;;;;;;;10.55;6.60;;;20.10;68.80;;;;;;5052993;28;20153;-46
2022/05/04 12:26:16;;;;;;;25.25;8.10;;;19.80;67.50;;;;;;5052747;28;20045;-45
2022/05/04 12:28:44;;;;;;;17.88;8.20;;;19.80;69.20;;;;;;5053211;28;20024;-46
2022/05/04 12:33:56;;;;;;;13.25;7.25;;;19.90;68.60;;;;;;5053192;28;20047;-45
2022/05/04 12:36:23;;;;;;;19.10;7.78;;;19.70;69.70;;;;;;5034426;28;20095;-46
2022/05/04 12:38:51;;;;;;;11.98;7.55;;;19.50;69.10;;;;;;5032769;28;20053;-45
2022/05/04 12:41:22;;;;;;;12.25;7.88;;;19.50;67.80;;;;;;5032178;28;20072;-46
2022/05/04 12:43:50;;;;;;;10.65;7.55;;;19.40;69.50;;;;;;5032304;28;20032;-46
2022/05/04 12:46:19;;;;;;;14.57;7.72;;;19.50;67.80;;;;;;5032491;28;20068;-47
2022/05/04 12:48:46;;;;;;;11.15;6.47;;;19.50;68.00;;;;;;5032299;28;20030;-46
2022/05/04 12:51:16;;;;;;;11.68;7.10;;;19.50;68.70;;;;;;5032472;28;20033;-46
2022/05/04 12:53:46;;;;;;;12.45;7.68;;;19.50;69.80;;;;;;5032515;28;20044;-45
2022/05/04 12:58:55;;;;;;;14.27;6.63;;;19.40;66.20;;;;;;5031984;28;20468;-46
2022/05/04 13:01:25;;;;;;;10.93;7.07;;;19.30;67.60;;;;;;5032082;28;20049;-48
2022/05/04 13:03:52;;;;;;;11.00;7.65;;;19.40;67.70;;;;;;5037045;28;20087;-47
2022/05/04 13:06:19;;;;;;;16.88;7.10;;;19.50;67.90;;;;;;5072152;28;20475;-48
2022/05/04 13:08:48;;;;;;;22.25;8.40;;;19.30;68.00;;;;;;5070373;28;20033;-47
2022/05/04 13:11:15;;;;;;;10.45;6.70;;;19.20;68.90;;;;;;5072119;28;20582;-47
2022/05/04 13:13:41;;;;;;;15.20;8.02;;;19.20;69.10;;;;;;5070487;28;20021;-48